createdAt,value
2022-09-04T00:01:59.654Z,20.16
2022-09-04T00:04:36.664Z,20.10
2022-09-04T00:07:19.181Z,20.07
2022-09-04T00:09:58.237Z,20.07
2022-09-04T00:12:34.424Z,20.08
2022-09-04T00:15:08.909Z,20.08
2022-09-04T00:17:45.736Z,20.00
2022-09-04T00:20:27.433Z,20.00
2022-09-04T00:23:03.972Z,19.91
2022-09-04T00:25:41.837Z,19.88
2022-09-04T00:28:18.418Z,19.73
2022-09-04T00:30:54.941Z,18.81
2022-09-04T00:33:31.558Z,18.87
2022-09-04T00:36:03.557Z,19.20
2022-09-04T00:38:42.199Z,19.35
2022-09-04T00:41:19.951Z,19.47
2022-09-04T00:44:18.817Z,19.29
2022-09-04T00:47:03.570Z,19.25
2022-09-04T00:49:57.864Z,19.28
2022-09-04T00:52:42.661Z,19.31
2022-09-04T00:55:28.803Z,19.40
2022-09-04T00:58:10.988Z,19.47
2022-09-04T01:00:40.329Z,19.52
2022-09-04T01:03:36.279Z,19.38
2022-09-04T01:06:35.445Z,19.38
2022-09-04T01:09:38.945Z,19.24
2022-09-04T01:12:20.766Z,19.26
2022-09-04T01:14:55.979Z,19.34
2022-09-04T01:17:33.012Z,19.43
2022-09-04T01:20:15.589Z,19.48
2022-09-04T01:23:00.264Z,19.51
2022-09-04T01:25:51.873Z,19.48
2022-09-04T01:28:29.121Z,19.45
2022-09-04T01:31:06.768Z,19.17
2022-09-04T01:33:42.597Z,19.26
2022-09-04T01:36:19.970Z,18.71
2022-09-04T01:38:53.314Z,19.02
2022-09-04T01:41:33.956Z,19.08
2022-09-04T01:44:09.323Z,19.10
2022-09-04T01:46:50.087Z,19.16
2022-09-04T01:49:28.793Z,19.09
2022-09-04T01:52:06.963Z,18.88
2022-09-04T01:54:50.314Z,18.97
2022-09-04T01:57:31.088Z,19.08
2022-09-04T02:00:07.734Z,19.11
2022-09-04T02:02:50.379Z,19.10
2022-09-04T02:05:27.745Z,19.11
2022-09-04T02:08:12.619Z,19.10
2022-09-04T02:10:50.196Z,19.11
2022-09-04T02:13:24.142Z,19.09
2022-09-04T02:16:06.029Z,19.05
2022-09-04T02:18:45.631Z,19.05
2022-09-04T02:21:26.214Z,18.98
2022-09-04T02:24:04.829Z,19.04
2022-09-04T02:26:38.606Z,19.04
2022-09-04T02:29:16.353Z,19.06
2022-09-04T02:31:55.308Z,19.00
2022-09-04T02:34:33.877Z,18.89
2022-09-04T02:37:10.512Z,18.51
2022-09-04T02:39:52.620Z,18.23
2022-09-04T02:42:31.235Z,18.57
2022-09-04T02:45:14.198Z,18.71
2022-09-04T02:47:48.168Z,18.78
2022-09-04T02:50:30.076Z,18.55
2022-09-04T02:53:08.565Z,18.55
2022-09-04T02:56:09.505Z,18.42
2022-09-04T02:58:52.043Z,18.51
2022-09-04T03:01:29.849Z,18.62
2022-09-04T03:04:04.994Z,18.66
2022-09-04T03:06:48.690Z,18.67
2022-09-04T03:09:22.733Z,18.58
2022-09-04T03:11:58.853Z,18.20
2022-09-04T03:14:34.535Z,18.09
2022-09-04T03:17:10.983Z,18.31
2022-09-04T03:19:48.644Z,18.43
2022-09-04T03:22:22.992Z,18.35
2022-09-04T03:25:10.803Z,18.28
2022-09-04T03:27:39.102Z,17.99
2022-09-04T03:30:09.653Z,17.99
2022-09-04T03:32:52.412Z,17.63
2022-09-04T03:35:30.405Z,17.66
2022-09-04T03:38:09.240Z,17.76
2022-09-04T03:40:41.710Z,17.84
2022-09-04T03:43:23.019Z,17.96
2022-09-04T03:45:57.682Z,17.98
2022-09-04T03:48:41.232Z,18.03
2022-09-04T03:51:24.371Z,17.92
2022-09-04T03:54:02.437Z,17.59
2022-09-04T03:56:47.758Z,17.51
2022-09-04T03:59:29.064Z,17.01
2022-09-04T04:02:06.545Z,17.03
2022-09-04T04:05:12.063Z,16.98
2022-09-04T04:07:50.867Z,16.67
2022-09-04T04:10:33.357Z,16.55
2022-09-04T04:13:19.391Z,16.43
2022-09-04T04:15:58.400Z,16.98
2022-09-04T04:18:54.169Z,17.13
2022-09-04T04:21:37.023Z,17.18
2022-09-04T04:24:30.002Z,17.47
2022-09-04T04:27:07.613Z,17.48
2022-09-04T04:29:56.854Z,17.62
2022-09-04T04:32:46.244Z,17.73
2022-09-04T04:35:27.244Z,17.80
2022-09-04T04:38:08.875Z,17.89
2022-09-04T04:40:55.867Z,17.93
2022-09-04T04:43:34.623Z,17.94
2022-09-04T04:46:12.516Z,18.00
2022-09-04T04:49:07.402Z,18.09
2022-09-04T04:51:57.880Z,18.10
2022-09-04T04:54:52.395Z,18.13
2022-09-04T04:57:33.012Z,18.12
2022-09-04T05:00:09.256Z,18.14
2022-09-04T05:02:43.653Z,18.10
2022-09-04T05:05:17.341Z,18.14
2022-09-04T05:07:56.550Z,18.24
2022-09-04T05:10:30.242Z,18.30
2022-09-04T05:13:13.029Z,18.31
2022-09-04T05:16:05.494Z,18.30
2022-09-04T05:18:42.241Z,18.32
2022-09-04T05:21:20.871Z,18.33
2022-09-04T05:23:56.008Z,18.39
2022-09-04T05:26:32.182Z,18.40
2022-09-04T05:29:07.187Z,18.42
2022-09-04T05:31:43.457Z,18.49
2022-09-04T05:34:20.753Z,18.54
2022-09-04T05:36:58.583Z,18.59
2022-09-04T05:39:31.630Z,18.60
2022-09-04T05:42:14.088Z,18.58
2022-09-04T05:44:59.005Z,18.57
2022-09-04T05:47:43.223Z,18.72
2022-09-04T05:50:37.530Z,18.78
2022-09-04T05:53:28.770Z,18.83
2022-09-04T05:56:41.240Z,18.79
2022-09-04T05:59:27.809Z,18.94
2022-09-04T06:02:31.092Z,18.99
2022-09-04T06:05:19.002Z,19.09
2022-09-04T06:07:56.183Z,19.02
2022-09-04T06:10:36.531Z,19.07
2022-09-04T06:13:32.668Z,18.99
2022-09-04T06:16:16.679Z,19.16
2022-09-04T06:19:01.347Z,19.04
2022-09-04T06:21:59.765Z,19.18
2022-09-04T06:24:56.788Z,18.99
2022-09-04T06:27:39.345Z,19.25
2022-09-04T06:30:10.319Z,19.27
2022-09-04T06:32:53.509Z,19.51
2022-09-04T06:35:52.796Z,19.55
2022-09-04T06:38:35.500Z,19.72
2022-09-04T06:41:20.009Z,19.94
2022-09-04T06:43:59.525Z,20.02
2022-09-04T06:47:00.449Z,20.10
2022-09-04T06:49:58.750Z,20.11
2022-09-04T06:52:34.718Z,20.13
2022-09-04T06:55:14.906Z,19.51
2022-09-04T06:58:00.178Z,19.56
2022-09-04T07:00:31.572Z,20.03
2022-09-04T07:03:21.819Z,20.28
2022-09-04T07:05:55.666Z,20.51
2022-09-04T07:08:38.338Z,20.53
2022-09-04T07:11:20.181Z,20.59
2022-09-04T07:14:16.999Z,20.89
2022-09-04T07:16:57.159Z,20.97
2022-09-04T07:20:08.455Z,20.53
2022-09-04T07:22:55.019Z,20.65
2022-09-04T07:25:28.329Z,21.06
2022-09-04T07:28:15.647Z,21.46
2022-09-04T07:30:47.589Z,21.52
2022-09-04T07:33:24.505Z,21.79
2022-09-04T07:36:01.031Z,22.02
2022-09-04T07:38:36.898Z,22.57
2022-09-04T07:41:14.910Z,22.04
2022-09-04T07:43:54.859Z,21.80
2022-09-04T07:46:33.588Z,21.26
2022-09-04T07:49:11.893Z,22.43
2022-09-04T07:51:46.450Z,22.98
2022-09-04T07:54:50.243Z,23.65
2022-09-04T07:57:40.258Z,24.14
2022-09-04T08:00:11.255Z,24.55
2022-09-04T08:03:16.905Z,24.49
2022-09-04T08:05:53.224Z,24.95
2022-09-04T08:08:58.366Z,24.85
2022-09-04T08:11:41.308Z,25.29
2022-09-04T08:14:33.989Z,25.59
2022-09-04T08:17:37.126Z,25.67
2022-09-04T08:20:12.682Z,25.66
2022-09-04T08:22:54.293Z,26.14
2022-09-04T08:25:28.738Z,26.22
2022-09-04T08:28:12.522Z,25.85
2022-09-04T08:30:51.975Z,26.20
2022-09-04T08:33:51.249Z,25.49
2022-09-04T08:36:29.012Z,26.24
2022-09-04T08:39:07.990Z,26.91
2022-09-04T08:42:11.356Z,26.71
2022-09-04T08:45:16.298Z,25.26
2022-09-04T08:48:20.688Z,26.89
2022-09-04T08:51:09.622Z,25.71
2022-09-04T08:54:18.437Z,26.53
2022-09-04T08:56:54.136Z,26.58
2022-09-04T09:00:03.194Z,25.56
2022-09-04T09:03:04.586Z,25.06
2022-09-04T09:06:02.093Z,26.78
2022-09-04T09:09:11.439Z,26.04
2022-09-04T09:12:19.094Z,27.65
2022-09-04T09:15:15.285Z,27.66
2022-09-04T09:18:01.158Z,28.64
2022-09-04T09:20:30.647Z,28.44
2022-09-04T09:23:20.733Z,28.99
2022-09-04T09:25:53.984Z,29.34
2022-09-04T09:29:06.802Z,28.69
2022-09-04T09:32:03.848Z,29.09
2022-09-04T09:35:10.581Z,28.49
2022-09-04T09:38:14.616Z,28.82
2022-09-04T09:41:10.074Z,29.93
2022-09-04T09:44:06.879Z,30.10
2022-09-04T09:47:12.918Z,29.57
2022-09-04T09:50:07.821Z,26.98
2022-09-04T09:53:28.792Z,26.23
2022-09-04T09:56:38.429Z,26.47
2022-09-04T09:59:53.809Z,25.24
2022-09-04T10:02:46.953Z,26.25
2022-09-04T10:05:37.523Z,26.12
2022-09-04T10:08:35.646Z,26.31
2022-09-04T10:11:44.290Z,27.36
2022-09-04T10:14:47.877Z,28.48
2022-09-04T10:17:55.813Z,27.42
2022-09-04T10:20:46.179Z,28.07
2022-09-04T10:23:52.748Z,28.45
2022-09-04T10:26:50.231Z,27.06
2022-09-04T10:29:35.690Z,28.79
2022-09-04T10:32:21.541Z,27.20
2022-09-04T10:35:10.875Z,27.85
2022-09-04T10:38:11.912Z,28.70
2022-09-04T10:41:05.977Z,27.22
2022-09-04T10:43:56.413Z,28.26
2022-09-04T10:46:30.665Z,29.01
2022-09-04T10:49:15.513Z,28.63
2022-09-04T10:52:08.492Z,28.08
2022-09-04T10:55:07.988Z,27.45
2022-09-04T10:57:50.073Z,27.45
2022-09-04T11:00:20.518Z,28.30
2022-09-04T11:03:15.598Z,29.39
2022-09-04T11:06:28.263Z,29.60
2022-09-04T11:09:18.360Z,29.64
2022-09-04T11:12:17.308Z,30.29
2022-09-04T11:15:27.642Z,29.10
2022-09-04T11:18:37.643Z,29.29
2022-09-04T11:21:47.998Z,29.72
2022-09-04T11:24:44.194Z,30.09
2022-09-04T11:27:52.540Z,31.10
2022-09-04T11:30:23.762Z,30.73
2022-09-04T11:33:36.815Z,30.66
2022-09-04T11:36:46.301Z,30.05
2022-09-04T11:40:06.372Z,28.36
2022-09-04T11:42:50.175Z,28.53
2022-09-04T11:45:48.082Z,29.22
2022-09-04T11:48:43.120Z,29.92
2022-09-04T11:51:40.505Z,30.40
2022-09-04T11:54:38.434Z,30.07
2022-09-04T11:57:17.918Z,31.30
2022-09-04T12:00:06.846Z,31.23
2022-09-04T12:03:09.470Z,29.36
2022-09-04T12:05:50.746Z,29.74
2022-09-04T12:08:51.143Z,29.31
2022-09-04T12:11:50.938Z,30.28
2022-09-04T12:14:35.474Z,30.63
2022-09-04T12:17:27.385Z,29.76
2022-09-04T12:20:26.682Z,29.01
2022-09-04T12:23:19.195Z,30.00
2022-09-04T12:26:19.137Z,30.00
2022-09-04T12:29:22.504Z,30.02
2022-09-04T12:32:35.523Z,29.38
2022-09-04T12:35:31.220Z,31.07
2022-09-04T12:38:18.252Z,31.35
2022-09-04T12:40:55.595Z,31.18
2022-09-04T12:43:42.849Z,31.74
2022-09-04T12:46:29.471Z,31.02
2022-09-04T12:49:17.214Z,30.83
2022-09-04T12:51:52.709Z,29.51
2022-09-04T12:54:33.242Z,31.07
2022-09-04T12:57:17.434Z,30.40
2022-09-04T13:00:01.247Z,29.98
2022-09-04T13:02:40.396Z,30.51
2022-09-04T13:05:29.597Z,29.82
2022-09-04T13:08:05.041Z,30.28
2022-09-04T13:10:45.081Z,28.38
2022-09-04T13:13:21.592Z,30.05
2022-09-04T13:16:00.517Z,30.77
2022-09-04T13:18:43.301Z,30.75
2022-09-04T13:21:26.354Z,30.74
2022-09-04T13:24:10.172Z,30.09
2022-09-04T13:26:52.322Z,31.02
2022-09-04T13:29:33.216Z,31.00
2022-09-04T13:32:33.690Z,30.70
2022-09-04T13:35:17.490Z,30.27
2022-09-04T13:38:03.231Z,30.03
2022-09-04T13:40:48.116Z,30.25
2022-09-04T13:43:50.459Z,30.54
2022-09-04T13:46:25.326Z,30.78
2022-09-04T13:48:59.775Z,30.28
2022-09-04T13:51:32.968Z,30.49
2022-09-04T13:54:09.825Z,29.63
2022-09-04T13:56:43.620Z,29.30
2022-09-04T13:59:20.274Z,30.04
2022-09-04T14:01:52.892Z,29.53
2022-09-04T14:04:26.445Z,30.14
2022-09-04T14:07:06.999Z,29.69
2022-09-04T14:09:42.423Z,29.96
2022-09-04T14:12:38.654Z,29.85
2022-09-04T14:15:34.386Z,30.01
2022-09-04T14:18:16.704Z,30.53
2022-09-04T14:21:01.326Z,30.07
2022-09-04T14:23:45.858Z,29.84
2022-09-04T14:26:24.521Z,29.75
2022-09-04T14:28:59.401Z,29.63
2022-09-04T14:31:35.246Z,28.31
2022-09-04T14:34:19.094Z,29.09
2022-09-04T14:36:59.787Z,29.21
2022-09-04T14:39:33.467Z,28.84
2022-09-04T14:42:30.029Z,29.41
2022-09-04T14:45:13.489Z,28.92
2022-09-04T14:47:47.785Z,29.16
2022-09-04T14:50:19.147Z,29.58
2022-09-04T14:52:51.860Z,29.15
2022-09-04T14:55:27.492Z,28.28
2022-09-04T14:58:02.666Z,27.75
2022-09-04T15:00:36.358Z,27.83
2022-09-04T15:03:15.636Z,27.72
2022-09-04T15:05:48.040Z,26.94
2022-09-04T15:08:28.885Z,27.61
2022-09-04T15:11:00.687Z,28.11
2022-09-04T15:13:46.430Z,28.43
2022-09-04T15:16:22.124Z,28.22
2022-09-04T15:18:59.007Z,28.51
2022-09-04T15:21:37.542Z,28.08
2022-09-04T15:24:16.165Z,27.60
2022-09-04T15:26:47.722Z,27.22
2022-09-04T15:29:22.848Z,27.45
2022-09-04T15:32:00.753Z,28.29
2022-09-04T15:34:29.433Z,28.23
2022-09-04T15:37:10.636Z,28.46
2022-09-04T15:39:50.433Z,28.43
2022-09-04T15:42:35.987Z,27.66
2022-09-04T15:45:17.007Z,27.32
2022-09-04T15:48:04.389Z,28.29
2022-09-04T15:50:36.283Z,28.27
2022-09-04T15:53:16.950Z,28.64
2022-09-04T15:55:46.939Z,28.38
2022-09-04T15:58:19.824Z,28.71
2022-09-04T16:01:14.675Z,28.38
2022-09-04T16:04:00.287Z,28.66
2022-09-04T16:06:33.539Z,28.46
2022-09-04T16:09:06.415Z,28.48
2022-09-04T16:11:41.540Z,28.07
2022-09-04T16:14:18.614Z,27.84
2022-09-04T16:16:53.471Z,28.37
2022-09-04T16:19:28.546Z,28.36
2022-09-04T16:22:09.222Z,27.62
2022-09-04T16:24:47.212Z,28.31
2022-09-04T16:27:19.845Z,27.45
2022-09-04T16:29:52.154Z,27.56
2022-09-04T16:32:23.935Z,27.53
2022-09-04T16:34:58.536Z,26.85
2022-09-04T16:37:32.363Z,26.79
2022-09-04T16:40:24.283Z,27.23
2022-09-04T16:43:00.011Z,27.02
2022-09-04T16:45:34.594Z,26.88
2022-09-04T16:48:34.754Z,27.43
2022-09-04T16:51:40.165Z,27.05
2022-09-04T16:54:05.669Z,26.51
2022-09-04T16:56:40.421Z,26.50
2022-09-04T16:59:23.937Z,26.69
2022-09-04T17:02:00.384Z,26.98
2022-09-04T17:04:40.005Z,26.63
2022-09-04T17:07:21.427Z,26.30
2022-09-04T17:10:05.551Z,26.62
2022-09-04T17:12:47.410Z,26.62
2022-09-04T17:15:33.094Z,26.56
2022-09-04T17:18:07.580Z,26.68
2022-09-04T17:22:08.510Z,26.34
2022-09-04T17:28:56.856Z,26.26
2022-09-04T17:29:09.740Z,26.25
2022-09-04T17:29:38.314Z,26.23
2022-09-04T17:36:32.827Z,25.65
2022-09-04T17:40:36.664Z,25.43
2022-09-04T17:40:40.958Z,25.34
2022-09-04T17:41:38.337Z,25.29
2022-09-04T17:44:27.129Z,25.15
2022-09-04T17:47:07.005Z,25.05
2022-09-04T17:49:35.657Z,24.91
2022-09-04T17:52:08.682Z,25.33
2022-09-04T17:54:42.435Z,25.54
2022-09-04T17:57:26.285Z,25.44
2022-09-04T18:00:02.454Z,25.26
2022-09-04T18:02:42.127Z,24.86
2022-09-04T18:05:16.898Z,25.07
2022-09-04T18:08:09.051Z,24.55
2022-09-04T18:10:54.782Z,24.50
2022-09-04T18:13:37.919Z,24.55
2022-09-04T18:16:16.183Z,24.70
2022-09-04T18:18:48.022Z,24.91
2022-09-04T18:21:22.960Z,24.87
2022-09-04T18:24:02.770Z,24.71
2022-09-04T18:26:41.527Z,24.75
2022-09-04T18:32:03.241Z,24.70
2022-09-04T18:37:09.521Z,24.62
2022-09-04T18:37:16.262Z,24.47
2022-09-04T18:38:36.422Z,24.54
2022-09-04T18:46:33.295Z,24.45
2022-09-04T18:50:20.883Z,24.33
2022-09-04T18:50:34.959Z,24.33
2022-09-04T18:50:44.273Z,24.36
2022-09-04T18:53:00.878Z,24.28
2022-09-04T18:55:32.980Z,24.27
2022-09-04T18:58:52.210Z,24.20
2022-09-04T19:01:28.103Z,24.15
2022-09-04T19:03:58.501Z,24.10
2022-09-04T19:06:39.158Z,24.12
2022-09-04T19:09:13.340Z,24.15
2022-09-04T19:11:46.927Z,23.79
2022-09-04T19:14:18.941Z,23.67
2022-09-04T19:16:55.657Z,23.86
2022-09-04T19:19:27.837Z,23.82
2022-09-04T19:22:09.557Z,23.49
2022-09-04T19:24:46.872Z,23.73
2022-09-04T19:27:28.270Z,23.14
2022-09-04T19:30:18.924Z,23.21
2022-09-04T19:33:06.074Z,23.45
2022-09-04T19:35:38.482Z,23.48
2022-09-04T19:42:35.783Z,23.26
2022-09-04T19:46:02.354Z,23.22
2022-09-04T19:46:06.805Z,23.19
2022-09-04T19:47:04.216Z,23.30
2022-09-04T19:53:20.166Z,23.16
2022-09-04T19:53:31.295Z,23.01
2022-09-04T19:55:39.884Z,23.03
2022-09-04T19:58:10.986Z,22.89
2022-09-04T20:00:48.928Z,22.39
2022-09-04T20:03:29.639Z,22.57
2022-09-04T20:06:21.381Z,22.06
2022-09-04T20:08:55.818Z,22.43
2022-09-04T20:11:35.858Z,22.55
2022-09-04T20:14:14.986Z,22.44
2022-09-04T20:16:54.869Z,22.54
2022-09-04T20:19:28.874Z,22.66
2022-09-04T20:22:02.433Z,22.46
2022-09-04T20:24:39.790Z,22.36
2022-09-04T20:27:15.941Z,21.24
2022-09-04T20:29:52.439Z,20.67
2022-09-04T20:32:26.688Z,21.46
2022-09-04T20:35:13.201Z,21.36
2022-09-04T20:37:53.381Z,21.06
2022-09-04T20:40:32.925Z,21.51
2022-09-04T20:43:18.179Z,21.49
2022-09-04T20:48:22.562Z,21.48
2022-09-04T20:53:00.035Z,21.04
2022-09-04T20:53:06.362Z,20.71
2022-09-04T20:54:51.750Z,19.60
2022-09-04T21:03:09.941Z,20.22
2022-09-04T21:03:12.414Z,20.18
2022-09-04T21:03:27.890Z,20.92
2022-09-04T21:06:25.953Z,21.18
2022-09-04T21:09:03.307Z,21.04
2022-09-04T21:11:40.653Z,20.83
2022-09-04T21:14:17.582Z,20.06
2022-09-04T21:17:33.762Z,19.95
2022-09-04T21:20:17.833Z,20.13
2022-09-04T21:23:09.502Z,19.77
2022-09-04T21:25:51.597Z,19.09
2022-09-04T21:28:36.847Z,19.56
2022-09-04T21:31:15.998Z,20.17
2022-09-04T21:33:59.211Z,19.79
2022-09-04T21:36:39.279Z,19.97
2022-09-04T21:39:34.092Z,20.29
2022-09-04T21:42:31.363Z,20.35
2022-09-04T21:45:19.629Z,20.25
2022-09-04T21:48:18.250Z,20.16
2022-09-04T21:50:58.768Z,20.18
2022-09-04T21:53:52.575Z,20.22
2022-09-04T22:01:16.794Z,20.09
2022-09-04T22:02:36.511Z,20.14
2022-09-04T22:03:20.026Z,19.96
2022-09-04T22:05:56.350Z,19.91
2022-09-04T22:11:39.844Z,19.79
2022-09-04T22:13:37.850Z,19.77
2022-09-04T22:14:41.529Z,19.96
2022-09-04T22:17:31.618Z,19.94
2022-09-04T22:20:55.002Z,19.92
2022-09-04T22:24:01.226Z,19.44
2022-09-04T22:26:49.174Z,19.67
2022-09-04T22:29:37.638Z,19.80
2022-09-04T22:32:49.803Z,19.95
2022-09-04T22:35:53.935Z,19.60
2022-09-04T22:38:45.965Z,19.77
2022-09-04T22:41:36.432Z,19.71
2022-09-04T22:44:21.351Z,19.66
2022-09-04T22:47:22.178Z,19.54
2022-09-04T22:50:06.919Z,19.59
2022-09-04T22:52:46.461Z,18.79
2022-09-04T22:55:40.470Z,18.63
2022-09-04T22:58:48.271Z,18.78
2022-09-04T23:02:00.136Z,18.90
2022-09-04T23:04:54.945Z,18.72
2022-09-04T23:13:43.686Z,19.07
2022-09-04T23:13:56.457Z,18.78
2022-09-04T23:14:12.213Z,18.79
2022-09-04T23:17:03.259Z,18.89
2022-09-04T23:24:15.189Z,18.49
2022-09-04T23:26:44.301Z,18.06
2022-09-04T23:26:53.590Z,18.53
2022-09-04T23:29:24.096Z,18.93
2022-09-04T23:32:10.158Z,19.07
2022-09-04T23:35:13.971Z,19.02
2022-09-04T23:38:07.062Z,19.02
2022-09-04T23:40:41.989Z,19.06
2022-09-04T23:43:42.554Z,18.98
2022-09-04T23:46:25.588Z,19.00
2022-09-04T23:49:25.647Z,18.93
2022-09-04T23:52:04.828Z,18.27
2022-09-04T23:55:23.326Z,18.75
2022-09-04T23:58:00.147Z,18.20
